PUA1497 SAZR-SADF
Flight info
| Callsign | PUA1497 |
|---|---|
| Flight time | N/A |
| Altitude | 9000 |
| Route | TIMKU W73 IRASU W68 ASADA |
| Aircraft | C82R/L-SDGRY/S |
Departure
| Time | 2026-04-22 15:03 |
|---|---|
| Airport | Santa Rosa Airport (SAZR) |
Arrival
| Time | N/A |
|---|---|
| Airport | San Fernando Airport (SADF) |
| Time | Latitude | Longitude | Altitude | Speed | Heading |
|---|---|---|---|---|---|
| 2026-04-22 14:50 | -36.59205 | -64.27906 | 622 ft | 0 kts | 298° |
| 2026-04-22 14:53 | -36.59206 | -64.27904 | 622 ft | 2 kts | 296° |
| 2026-04-22 14:53 | -36.59213 | -64.27887 | 626 ft | 2 kts | 300° |
| 2026-04-22 14:53 | -36.59216 | -64.27881 | 624 ft | 0 kts | 293° |
| 2026-04-22 14:54 | -36.59214 | -64.27883 | 625 ft | 2 kts | 339° |
| 2026-04-22 14:55 | -36.59199 | -64.27843 | 620 ft | 6 kts | 59° |
| 2026-04-22 14:55 | -36.59174 | -64.27787 | 625 ft | 8 kts | 83° |
| 2026-04-22 14:55 | -36.59166 | -64.27755 | 620 ft | 7 kts | 60° |
| 2026-04-22 14:55 | -36.59070 | -64.27689 | 620 ft | 26 kts | 21° |
| 2026-04-22 14:56 | -36.58887 | -64.27583 | 621 ft | 32 kts | 12° |
| 2026-04-22 14:56 | -36.58645 | -64.27517 | 624 ft | 39 kts | 10° |
| 2026-04-22 14:56 | -36.58393 | -64.27459 | 624 ft | 35 kts | 9° |
| 2026-04-22 14:56 | -36.58176 | -64.27408 | 630 ft | 30 kts | 10° |
| 2026-04-22 14:57 | -36.57986 | -64.27362 | 627 ft | 21 kts | 9° |
| 2026-04-22 14:57 | -36.57881 | -64.27347 | 623 ft | 12 kts | 3° |
| 2026-04-22 14:57 | -36.57815 | -64.27331 | 623 ft | 9 kts | 57° |
| 2026-04-22 14:57 | -36.57820 | -64.27319 | 627 ft | 2 kts | 197° |
| 2026-04-22 14:58 | -36.57843 | -64.27327 | 624 ft | 0 kts | 206° |
| 2026-04-22 15:00 | -36.57844 | -64.27328 | 623 ft | 2 kts | 206° |
| 2026-04-22 15:00 | -36.57884 | -64.27342 | 623 ft | 6 kts | 185° |
| 2026-04-22 15:01 | -36.57892 | -64.27342 | 625 ft | 0 kts | 189° |
| 2026-04-22 15:01 | -36.57917 | -64.27354 | 623 ft | 18 kts | 211° |
| 2026-04-22 15:02 | -36.58111 | -64.27388 | 622 ft | 45 kts | 186° |
| 2026-04-22 15:02 | -36.58542 | -64.27485 | 646 ft | 77 kts | 195° |
| 2026-04-22 15:02 | -36.59096 | -64.27560 | 821 ft | 82 kts | 193° |
| 2026-04-22 15:02 | -36.59701 | -64.27665 | 942 ft | 88 kts | 197° |
| 2026-04-22 15:03 | -36.60171 | -64.27759 | 1118 ft | 86 kts | 196° |
| 2026-04-22 15:03 | -36.60432 | -64.27796 | 1204 ft | 87 kts | 191° |
| 2026-04-22 15:03 | -36.61202 | -64.27936 | 1457 ft | 84 kts | 192° |
| 2026-04-22 15:04 | -36.61782 | -64.27948 | 1599 ft | 88 kts | 172° |
| 2026-04-22 15:04 | -36.62223 | -64.27390 | 1785 ft | 97 kts | 130° |
| 2026-04-22 15:04 | -36.62560 | -64.26652 | 1962 ft | 98 kts | 132° |
| 2026-04-22 15:04 | -36.62803 | -64.26174 | 2090 ft | 96 kts | 134° |
| 2026-04-22 15:05 | -36.63156 | -64.25474 | 2288 ft | 96 kts | 133° |
| 2026-04-22 15:05 | -36.63489 | -64.24745 | 2464 ft | 99 kts | 134° |
| 2026-04-22 15:05 | -36.63824 | -64.23986 | 2671 ft | 100 kts | 134° |
| 2026-04-22 15:05 | -36.64193 | -64.23190 | 2787 ft | 109 kts | 133° |
| 2026-04-22 15:06 | -36.64548 | -64.22348 | 2978 ft | 110 kts | 131° |
| 2026-04-22 15:06 | -36.64895 | -64.21503 | 3170 ft | 108 kts | 131° |
| 2026-04-22 15:06 | -36.65231 | -64.20673 | 3373 ft | 106 kts | 131° |
| 2026-04-22 15:06 | -36.65558 | -64.19861 | 3559 ft | 105 kts | 131° |
| 2026-04-22 15:07 | -36.65870 | -64.19083 | 3736 ft | 102 kts | 131° |
| 2026-04-22 15:07 | -36.66176 | -64.18317 | 3927 ft | 97 kts | 131° |
| 2026-04-22 15:07 | -36.66473 | -64.17572 | 4105 ft | 96 kts | 130° |
| 2026-04-22 15:07 | -36.66770 | -64.16833 | 4290 ft | 94 kts | 130° |
| 2026-04-22 15:08 | -36.67055 | -64.16122 | 4473 ft | 90 kts | 130° |
| 2026-04-22 15:08 | -36.67321 | -64.15452 | 4638 ft | 85 kts | 131° |
| 2026-04-22 15:08 | -36.67614 | -64.14741 | 4723 ft | 98 kts | 130° |
| 2026-04-22 15:08 | -36.67911 | -64.13902 | 4817 ft | 117 kts | 111° |
| 2026-04-22 15:09 | -36.67716 | -64.12864 | 4887 ft | 135 kts | 55° |
| 2026-04-22 15:09 | -36.67000 | -64.12077 | 4987 ft | 139 kts | 35° |
| 2026-04-22 15:09 | -36.66237 | -64.11287 | 5084 ft | 146 kts | 39° |
| 2026-04-22 15:09 | -36.65467 | -64.10433 | 5178 ft | 150 kts | 40° |
| 2026-04-22 15:10 | -36.64695 | -64.09562 | 5271 ft | 150 kts | 40° |
| 2026-04-22 15:10 | -36.63927 | -64.08692 | 5345 ft | 152 kts | 40° |
| 2026-04-22 15:10 | -36.63152 | -64.07811 | 5429 ft | 151 kts | 40° |
| 2026-04-22 15:10 | -36.62371 | -64.06925 | 5507 ft | 153 kts | 40° |
| 2026-04-22 15:11 | -36.61579 | -64.06026 | 5588 ft | 155 kts | 40° |
| 2026-04-22 15:11 | -36.60777 | -64.05114 | 5660 ft | 156 kts | 40° |
| 2026-04-22 15:11 | -36.59980 | -64.04209 | 5755 ft | 155 kts | 40° |
| 2026-04-22 15:11 | -36.59187 | -64.03311 | 5896 ft | 153 kts | 40° |
| 2026-04-22 15:12 | -36.58411 | -64.02430 | 6046 ft | 149 kts | 39° |
| 2026-04-22 15:12 | -36.57649 | -64.01565 | 6193 ft | 147 kts | 39° |
| 2026-04-22 15:12 | -36.56895 | -64.00709 | 6341 ft | 146 kts | 39° |
| 2026-04-22 15:12 | -36.56150 | -63.99864 | 6494 ft | 144 kts | 39° |
| 2026-04-22 15:13 | -36.55408 | -63.99024 | 6637 ft | 143 kts | 39° |
| 2026-04-22 15:13 | -36.54673 | -63.98191 | 6774 ft | 143 kts | 39° |
| 2026-04-22 15:13 | -36.53940 | -63.97360 | 6920 ft | 142 kts | 38° |
| 2026-04-22 15:13 | -36.53210 | -63.96535 | 7057 ft | 140 kts | 38° |
| 2026-04-22 15:14 | -36.52489 | -63.95718 | 7203 ft | 140 kts | 38° |
| 2026-04-22 15:14 | -36.51770 | -63.94905 | 7345 ft | 139 kts | 37° |
| 2026-04-22 15:14 | -36.51057 | -63.94098 | 7488 ft | 139 kts | 37° |
| 2026-04-22 15:14 | -36.50344 | -63.93293 | 7635 ft | 138 kts | 37° |
| 2026-04-22 15:15 | -36.49636 | -63.92493 | 7782 ft | 138 kts | 36° |
| 2026-04-22 15:15 | -36.48923 | -63.91686 | 7937 ft | 139 kts | 36° |
| 2026-04-22 15:15 | -36.48211 | -63.90882 | 8069 ft | 137 kts | 36° |
| 2026-04-22 15:15 | -36.47516 | -63.90098 | 8218 ft | 136 kts | 35° |
| 2026-04-22 15:16 | -36.46816 | -63.89308 | 8371 ft | 136 kts | 34° |
| 2026-04-22 15:16 | -36.46120 | -63.88522 | 8515 ft | 135 kts | 34° |
| 2026-04-22 15:16 | -36.45426 | -63.87739 | 8662 ft | 135 kts | 34° |
| 2026-04-22 15:16 | -36.44733 | -63.86957 | 8816 ft | 134 kts | 33° |
| 2026-04-22 15:17 | -36.44038 | -63.86174 | 8971 ft | 136 kts | 33° |
| 2026-04-22 15:17 | -36.43337 | -63.85384 | 9122 ft | 136 kts | 32° |
| 2026-04-22 15:17 | -36.42616 | -63.84574 | 9180 ft | 145 kts | 33° |
| 2026-04-22 15:17 | -36.41839 | -63.83700 | 9188 ft | 155 kts | 34° |
| 2026-04-22 15:18 | -36.41019 | -63.82777 | 9187 ft | 163 kts | 34° |
| 2026-04-22 15:18 | -36.40171 | -63.81820 | 9188 ft | 167 kts | 34° |
| 2026-04-22 15:18 | -36.39303 | -63.80840 | 9188 ft | 170 kts | 34° |
| 2026-04-22 15:18 | -36.38420 | -63.79845 | 9187 ft | 172 kts | 34° |
| 2026-04-22 15:19 | -36.37525 | -63.78837 | 9185 ft | 175 kts | 35° |
| 2026-04-22 15:19 | -36.36624 | -63.77821 | 9186 ft | 175 kts | 35° |
| 2026-04-22 15:19 | -36.35718 | -63.76802 | 9185 ft | 176 kts | 34° |
| 2026-04-22 15:19 | -36.34807 | -63.75778 | 9183 ft | 177 kts | 34° |
| 2026-04-22 15:20 | -36.33900 | -63.74755 | 9185 ft | 177 kts | 35° |
| 2026-04-22 15:20 | -36.33155 | -63.73513 | 9179 ft | 183 kts | 56° |
| 2026-04-22 15:20 | -36.32548 | -63.72124 | 9180 ft | 183 kts | 58° |
| 2026-04-22 15:20 | -36.31931 | -63.70746 | 9178 ft | 183 kts | 56° |
| 2026-04-22 15:21 | -36.31299 | -63.69378 | 9178 ft | 183 kts | 56° |
| 2026-04-22 15:21 | -36.30666 | -63.68009 | 9175 ft | 183 kts | 56° |
| 2026-04-22 15:21 | -36.30033 | -63.66636 | 9179 ft | 183 kts | 56° |
| 2026-04-22 15:21 | -36.29408 | -63.65282 | 9177 ft | 184 kts | 56° |
| 2026-04-22 15:22 | -36.28772 | -63.63904 | 9176 ft | 184 kts | 56° |
| 2026-04-22 15:22 | -36.28137 | -63.62530 | 9176 ft | 184 kts | 56° |
| 2026-04-22 15:22 | -36.27501 | -63.61154 | 9176 ft | 184 kts | 56° |
| 2026-04-22 15:22 | -36.26864 | -63.59777 | 9175 ft | 184 kts | 56° |
| 2026-04-22 15:23 | -36.26228 | -63.58401 | 9177 ft | 184 kts | 56° |
| 2026-04-22 15:23 | -36.25591 | -63.57024 | 9173 ft | 184 kts | 56° |
| 2026-04-22 15:23 | -36.24965 | -63.55673 | 9174 ft | 183 kts | 56° |
| 2026-04-22 15:23 | -36.24328 | -63.54297 | 9176 ft | 184 kts | 56° |
| 2026-04-22 15:24 | -36.23693 | -63.52926 | 9173 ft | 184 kts | 56° |
| 2026-04-22 15:24 | -36.23055 | -63.51550 | 9174 ft | 184 kts | 56° |
| 2026-04-22 15:24 | -36.22409 | -63.50156 | 9174 ft | 184 kts | 56° |
| 2026-04-22 15:24 | -36.21780 | -63.48799 | 9171 ft | 184 kts | 56° |
| 2026-04-22 15:25 | -36.21141 | -63.47423 | 9173 ft | 184 kts | 56° |
| 2026-04-22 15:25 | -36.20502 | -63.46046 | 9173 ft | 185 kts | 56° |
| 2026-04-22 15:25 | -36.19863 | -63.44672 | 9173 ft | 184 kts | 56° |
| 2026-04-22 15:25 | -36.19225 | -63.43297 | 9175 ft | 184 kts | 56° |
| 2026-04-22 15:26 | -36.18585 | -63.41920 | 9174 ft | 184 kts | 56° |
| 2026-04-22 15:26 | -36.17946 | -63.40545 | 9173 ft | 184 kts | 56° |
| 2026-04-22 15:26 | -36.17306 | -63.39170 | 9173 ft | 184 kts | 56° |
| 2026-04-22 15:26 | -36.16665 | -63.37794 | 9176 ft | 185 kts | 56° |
| 2026-04-22 15:27 | -36.16022 | -63.36412 | 9173 ft | 185 kts | 56° |
| 2026-04-22 15:27 | -36.15381 | -63.35036 | 9171 ft | 184 kts | 56° |
| 2026-04-22 15:27 | -36.14740 | -63.33659 | 9171 ft | 185 kts | 56° |
| 2026-04-22 15:27 | -36.14097 | -63.32282 | 9172 ft | 185 kts | 56° |
| 2026-04-22 15:28 | -36.13452 | -63.30898 | 9172 ft | 185 kts | 56° |
| 2026-04-22 15:28 | -36.12807 | -63.29514 | 9171 ft | 185 kts | 56° |
| 2026-04-22 15:28 | -36.12165 | -63.28138 | 9170 ft | 185 kts | 56° |
| 2026-04-22 15:28 | -36.11521 | -63.26760 | 9170 ft | 185 kts | 56° |
| 2026-04-22 15:29 | -36.10885 | -63.25399 | 9168 ft | 185 kts | 56° |
| 2026-04-22 15:29 | -36.10236 | -63.24009 | 9168 ft | 184 kts | 56° |
| 2026-04-22 15:29 | -36.09604 | -63.22656 | 9169 ft | 184 kts | 56° |
| 2026-04-22 15:30 | -36.08313 | -63.19899 | 9171 ft | 184 kts | 56° |
| 2026-04-22 15:30 | -36.07680 | -63.18546 | 9165 ft | 184 kts | 56° |
| 2026-04-22 15:30 | -36.07041 | -63.17181 | 9172 ft | 184 kts | 56° |
| 2026-04-22 15:30 | -36.06399 | -63.15809 | 9167 ft | 184 kts | 56° |
| 2026-04-22 15:31 | -36.05757 | -63.14439 | 9167 ft | 184 kts | 56° |
| 2026-04-22 15:31 | -36.05114 | -63.13070 | 9170 ft | 184 kts | 56° |
| 2026-04-22 15:31 | -36.04470 | -63.11697 | 9168 ft | 185 kts | 56° |
| 2026-04-22 15:31 | -36.03825 | -63.10322 | 9170 ft | 185 kts | 56° |
| 2026-04-22 15:32 | -36.03180 | -63.08947 | 9171 ft | 185 kts | 56° |
| 2026-04-22 15:32 | -36.02534 | -63.07570 | 9167 ft | 185 kts | 57° |
| 2026-04-22 15:32 | -36.01889 | -63.06197 | 9165 ft | 184 kts | 56° |
| 2026-04-22 15:32 | -36.01246 | -63.04829 | 9165 ft | 184 kts | 56° |
| 2026-04-22 15:33 | -36.00604 | -63.03464 | 9166 ft | 184 kts | 56° |
| 2026-04-22 15:33 | -35.99959 | -63.02093 | 9169 ft | 184 kts | 57° |
| 2026-04-22 15:33 | -35.99315 | -63.00724 | 9166 ft | 184 kts | 56° |
| 2026-04-22 15:33 | -35.98672 | -62.99360 | 9167 ft | 184 kts | 56° |
| 2026-04-22 15:34 | -35.98032 | -62.97999 | 9167 ft | 183 kts | 56° |
| 2026-04-22 15:34 | -35.97390 | -62.96637 | 9166 ft | 184 kts | 56° |
| 2026-04-22 15:34 | -35.96747 | -62.95272 | 9170 ft | 184 kts | 56° |
| 2026-04-22 15:34 | -35.96102 | -62.93906 | 9172 ft | 185 kts | 56° |
| 2026-04-22 15:35 | -35.95673 | -62.92995 | 9173 ft | 185 kts | 57° |
| 2026-04-22 15:35 | -35.94816 | -62.91179 | 9175 ft | 185 kts | 56° |
| 2026-04-22 15:35 | -35.94167 | -62.89804 | 9174 ft | 185 kts | 57° |
| 2026-04-22 15:35 | -35.93518 | -62.88430 | 9176 ft | 185 kts | 57° |
| 2026-04-22 15:36 | -35.92871 | -62.87061 | 9170 ft | 185 kts | 57° |
| 2026-04-22 15:36 | -35.92223 | -62.85688 | 9172 ft | 185 kts | 57° |
| 2026-04-22 15:36 | -35.91578 | -62.84324 | 9183 ft | 184 kts | 57° |
| 2026-04-22 15:36 | -35.90933 | -62.82960 | 9180 ft | 184 kts | 57° |
| 2026-04-22 15:37 | -35.90287 | -62.81595 | 9181 ft | 185 kts | 57° |
| 2026-04-22 15:37 | -35.89638 | -62.80226 | 9183 ft | 184 kts | 57° |
| 2026-04-22 15:37 | -35.88999 | -62.78875 | 9183 ft | 184 kts | 57° |
| 2026-04-22 15:37 | -35.88343 | -62.77490 | 9183 ft | 185 kts | 57° |
| 2026-04-22 15:38 | -35.87702 | -62.76139 | 9181 ft | 185 kts | 57° |
| 2026-04-22 15:38 | -35.86403 | -62.73397 | 9181 ft | 185 kts | 57° |
| 2026-04-22 15:38 | -35.85753 | -62.72027 | 9182 ft | 185 kts | 57° |
| 2026-04-22 15:39 | -35.85106 | -62.70667 | 9180 ft | 184 kts | 57° |
| 2026-04-22 15:39 | -35.84458 | -62.69302 | 9179 ft | 184 kts | 57° |
| 2026-04-22 15:39 | -35.83808 | -62.67933 | 9176 ft | 184 kts | 57° |
| 2026-04-22 15:39 | -35.83162 | -62.66573 | 9178 ft | 184 kts | 57° |
| 2026-04-22 15:40 | -35.82514 | -62.65210 | 9177 ft | 184 kts | 57° |
| 2026-04-22 15:40 | -35.81870 | -62.63857 | 9177 ft | 183 kts | 57° |
| 2026-04-22 15:40 | -35.81228 | -62.62506 | 9173 ft | 182 kts | 57° |
| 2026-04-22 15:40 | -35.80585 | -62.61157 | 9174 ft | 182 kts | 57° |
| 2026-04-22 15:41 | -35.79945 | -62.59815 | 9170 ft | 182 kts | 57° |
| 2026-04-22 15:41 | -35.79304 | -62.58468 | 9178 ft | 182 kts | 57° |
| 2026-04-22 15:41 | -35.78662 | -62.57120 | 9175 ft | 182 kts | 57° |
| 2026-04-22 15:41 | -35.78028 | -62.55790 | 9175 ft | 182 kts | 57° |
| 2026-04-22 15:42 | -35.77383 | -62.54438 | 9173 ft | 183 kts | 57° |
| 2026-04-22 15:42 | -35.76740 | -62.53090 | 9174 ft | 183 kts | 57° |
| 2026-04-22 15:42 | -35.76096 | -62.51742 | 9172 ft | 183 kts | 57° |
| 2026-04-22 15:42 | -35.75450 | -62.50390 | 9170 ft | 183 kts | 57° |
| 2026-04-22 15:43 | -35.74808 | -62.49046 | 9171 ft | 182 kts | 57° |
| 2026-04-22 15:43 | -35.74162 | -62.47694 | 9169 ft | 183 kts | 57° |
| 2026-04-22 15:43 | -35.73517 | -62.46345 | 9172 ft | 183 kts | 57° |
| 2026-04-22 15:43 | -35.72870 | -62.44992 | 9168 ft | 183 kts | 57° |
| 2026-04-22 15:44 | -35.72224 | -62.43640 | 9169 ft | 183 kts | 57° |
| 2026-04-22 15:44 | -35.71580 | -62.42295 | 9168 ft | 183 kts | 57° |
| 2026-04-22 15:44 | -35.70934 | -62.40947 | 9169 ft | 183 kts | 57° |
| 2026-04-22 15:44 | -35.70296 | -62.39615 | 9168 ft | 182 kts | 57° |
| 2026-04-22 15:45 | -35.69651 | -62.38270 | 9170 ft | 182 kts | 57° |
| 2026-04-22 15:45 | -35.69006 | -62.36923 | 9170 ft | 182 kts | 57° |
| 2026-04-22 15:45 | -35.68362 | -62.35581 | 9168 ft | 182 kts | 57° |
| 2026-04-22 15:45 | -35.67719 | -62.34241 | 9171 ft | 182 kts | 57° |
| 2026-04-22 15:46 | -35.67077 | -62.32905 | 9171 ft | 181 kts | 57° |
| 2026-04-22 15:46 | -35.66436 | -62.31571 | 9173 ft | 181 kts | 57° |
| 2026-04-22 15:46 | -35.65796 | -62.30235 | 9174 ft | 182 kts | 57° |
| 2026-04-22 15:46 | -35.65154 | -62.28900 | 9169 ft | 181 kts | 57° |
| 2026-04-22 15:47 | -35.64512 | -62.27566 | 9166 ft | 181 kts | 57° |
| 2026-04-22 15:47 | -35.63870 | -62.26230 | 9168 ft | 182 kts | 57° |
| 2026-04-22 15:47 | -35.63225 | -62.24890 | 9165 ft | 182 kts | 57° |
| 2026-04-22 15:47 | -35.62581 | -62.23550 | 9171 ft | 182 kts | 57° |
| 2026-04-22 15:48 | -35.61935 | -62.22211 | 9172 ft | 182 kts | 57° |
| 2026-04-22 15:48 | -35.61290 | -62.20871 | 9173 ft | 182 kts | 57° |
| 2026-04-22 15:48 | -35.60644 | -62.19531 | 9169 ft | 182 kts | 57° |
| 2026-04-22 15:48 | -35.60000 | -62.18194 | 9170 ft | 182 kts | 57° |
| 2026-04-22 15:49 | -35.59354 | -62.16855 | 9168 ft | 182 kts | 57° |
| 2026-04-22 15:49 | -35.58707 | -62.15515 | 9173 ft | 183 kts | 57° |
| 2026-04-22 15:49 | -35.58058 | -62.14172 | 9171 ft | 183 kts | 57° |
| 2026-04-22 15:49 | -35.57412 | -62.12831 | 9169 ft | 182 kts | 57° |
| 2026-04-22 15:50 | -35.56774 | -62.11509 | 9169 ft | 182 kts | 57° |
| 2026-04-22 15:50 | -35.56119 | -62.10154 | 9164 ft | 182 kts | 57° |
| 2026-04-22 15:50 | -35.55472 | -62.08816 | 9164 ft | 182 kts | 57° |
| 2026-04-22 15:50 | -35.55045 | -62.07932 | 9166 ft | 182 kts | 57° |
| 2026-04-22 15:51 | -35.54399 | -62.06597 | 9166 ft | 182 kts | 57° |
| 2026-04-22 15:51 | -35.53544 | -62.04831 | 9166 ft | 181 kts | 57° |
| 2026-04-22 15:51 | -35.52900 | -62.03500 | 9165 ft | 182 kts | 57° |
| 2026-04-22 15:51 | -35.52255 | -62.02169 | 9166 ft | 181 kts | 57° |
| 2026-04-22 15:52 | -35.51821 | -62.01272 | 9164 ft | 181 kts | 57° |
| 2026-04-22 15:52 | -35.51178 | -61.99946 | 9165 ft | 181 kts | 57° |
| 2026-04-22 15:52 | -35.50544 | -61.98640 | 9163 ft | 180 kts | 57° |
| 2026-04-22 15:52 | -35.49896 | -61.97304 | 9164 ft | 180 kts | 57° |
| 2026-04-22 15:53 | -35.49261 | -61.95995 | 9163 ft | 181 kts | 57° |
| 2026-04-22 15:53 | -35.48619 | -61.94671 | 9161 ft | 181 kts | 57° |
| 2026-04-22 15:53 | -35.47976 | -61.93347 | 9164 ft | 181 kts | 57° |
| 2026-04-22 15:53 | -35.47332 | -61.92023 | 9166 ft | 181 kts | 57° |
| 2026-04-22 15:54 | -35.46689 | -61.90698 | 9164 ft | 181 kts | 57° |
| 2026-04-22 15:54 | -35.46045 | -61.89373 | 9163 ft | 181 kts | 57° |
| 2026-04-22 15:54 | -35.45400 | -61.88048 | 9162 ft | 181 kts | 57° |
| 2026-04-22 15:54 | -35.44755 | -61.86721 | 9167 ft | 181 kts | 57° |
| 2026-04-22 15:55 | -35.44107 | -61.85392 | 9165 ft | 181 kts | 57° |
| 2026-04-22 15:55 | -35.43459 | -61.84059 | 9167 ft | 182 kts | 57° |
| 2026-04-22 15:55 | -35.42812 | -61.82730 | 9164 ft | 181 kts | 57° |
| 2026-04-22 15:55 | -35.42166 | -61.81404 | 9166 ft | 181 kts | 57° |
| 2026-04-22 15:56 | -35.41520 | -61.80078 | 9165 ft | 181 kts | 57° |
| 2026-04-22 15:56 | -35.40874 | -61.78754 | 9163 ft | 181 kts | 57° |
| 2026-04-22 15:56 | -35.40227 | -61.77429 | 9163 ft | 181 kts | 57° |
| 2026-04-22 15:56 | -35.39581 | -61.76104 | 9164 ft | 181 kts | 58° |
| 2026-04-22 15:57 | -35.38945 | -61.74795 | 9164 ft | 181 kts | 58° |
| 2026-04-22 15:57 | -35.38527 | -61.73351 | 9165 ft | 181 kts | 80° |
| 2026-04-22 15:57 | -35.38308 | -61.71833 | 9167 ft | 181 kts | 82° |
| 2026-04-22 15:57 | -35.38079 | -61.70313 | 9169 ft | 182 kts | 81° |
| 2026-04-22 15:58 | -35.37833 | -61.68791 | 9168 ft | 183 kts | 81° |
| 2026-04-22 15:58 | -35.37583 | -61.67261 | 9166 ft | 183 kts | 81° |
| 2026-04-22 15:58 | -35.37336 | -61.65736 | 9167 ft | 182 kts | 81° |
| 2026-04-22 15:58 | -35.37088 | -61.64205 | 9170 ft | 183 kts | 81° |
| 2026-04-22 15:59 | -35.36840 | -61.62680 | 9171 ft | 183 kts | 81° |
| 2026-04-22 15:59 | -35.36590 | -61.61146 | 9162 ft | 183 kts | 81° |
| 2026-04-22 15:59 | -35.36343 | -61.59620 | 9166 ft | 183 kts | 81° |
| 2026-04-22 15:59 | -35.36094 | -61.58086 | 9164 ft | 183 kts | 81° |
| 2026-04-22 16:00 | -35.35845 | -61.56555 | 9166 ft | 184 kts | 81° |
| 2026-04-22 16:00 | -35.35597 | -61.55035 | 9165 ft | 184 kts | 81° |
| 2026-04-22 16:00 | -35.35346 | -61.53495 | 9165 ft | 184 kts | 81° |
| 2026-04-22 16:00 | -35.35095 | -61.51954 | 9166 ft | 184 kts | 81° |
| 2026-04-22 16:01 | -35.34844 | -61.50418 | 9166 ft | 184 kts | 81° |
| 2026-04-22 16:01 | -35.34592 | -61.48881 | 9163 ft | 184 kts | 81° |
| 2026-04-22 16:01 | -35.34341 | -61.47342 | 9165 ft | 184 kts | 81° |
| 2026-04-22 16:01 | -35.34088 | -61.45800 | 9162 ft | 185 kts | 81° |
| 2026-04-22 16:02 | -35.33836 | -61.44258 | 9165 ft | 185 kts | 81° |
| 2026-04-22 16:02 | -35.33582 | -61.42713 | 9162 ft | 185 kts | 81° |
| 2026-04-22 16:02 | -35.33329 | -61.41170 | 9160 ft | 184 kts | 81° |
| 2026-04-22 16:02 | -35.33077 | -61.39635 | 9162 ft | 184 kts | 81° |
| 2026-04-22 16:03 | -35.32824 | -61.38099 | 9159 ft | 184 kts | 81° |
| 2026-04-22 16:03 | -35.32573 | -61.36568 | 9162 ft | 183 kts | 81° |
| 2026-04-22 16:03 | -35.32320 | -61.35032 | 9165 ft | 185 kts | 81° |
| 2026-04-22 16:03 | -35.32066 | -61.33488 | 9164 ft | 185 kts | 82° |
| 2026-04-22 16:04 | -35.31812 | -61.31945 | 9159 ft | 185 kts | 81° |
| 2026-04-22 16:04 | -35.31557 | -61.30410 | 9162 ft | 184 kts | 81° |
| 2026-04-22 16:04 | -35.31304 | -61.28874 | 9163 ft | 184 kts | 81° |
| 2026-04-22 16:04 | -35.31049 | -61.27338 | 9160 ft | 185 kts | 81° |
| 2026-04-22 16:05 | -35.30794 | -61.25796 | 9162 ft | 185 kts | 81° |
| 2026-04-22 16:05 | -35.30539 | -61.24253 | 9159 ft | 185 kts | 82° |
| 2026-04-22 16:05 | -35.30282 | -61.22704 | 9160 ft | 186 kts | 82° |
| 2026-04-22 16:05 | -35.30025 | -61.21155 | 9164 ft | 185 kts | 82° |
| 2026-04-22 16:06 | -35.29769 | -61.19616 | 9170 ft | 185 kts | 82° |
| 2026-04-22 16:06 | -35.29512 | -61.18071 | 9177 ft | 185 kts | 82° |
| 2026-04-22 16:06 | -35.29259 | -61.16548 | 9172 ft | 185 kts | 81° |
| 2026-04-22 16:06 | -35.29002 | -61.15001 | 9171 ft | 185 kts | 81° |
| 2026-04-22 16:07 | -35.28745 | -61.13458 | 9171 ft | 185 kts | 81° |
| 2026-04-22 16:07 | -35.28488 | -61.11921 | 9170 ft | 185 kts | 81° |
| 2026-04-22 16:07 | -35.28231 | -61.10380 | 9176 ft | 185 kts | 82° |
| 2026-04-22 16:07 | -35.27974 | -61.08834 | 9173 ft | 185 kts | 81° |
| 2026-04-22 16:08 | -35.27716 | -61.07291 | 9171 ft | 186 kts | 81° |
| 2026-04-22 16:08 | -35.27457 | -61.05743 | 9173 ft | 185 kts | 81° |
| 2026-04-22 16:08 | -35.27198 | -61.04196 | 9173 ft | 185 kts | 81° |
| 2026-04-22 16:08 | -35.26939 | -61.02653 | 9173 ft | 185 kts | 81° |
| 2026-04-22 16:09 | -35.26681 | -61.01114 | 9169 ft | 184 kts | 81° |
| 2026-04-22 16:09 | -35.26423 | -60.99578 | 9165 ft | 184 kts | 81° |
| 2026-04-22 16:09 | -35.26164 | -60.98036 | 9167 ft | 185 kts | 81° |
| 2026-04-22 16:09 | -35.25905 | -60.96497 | 9166 ft | 185 kts | 81° |
| 2026-04-22 16:10 | -35.25646 | -60.94957 | 9167 ft | 185 kts | 81° |
| 2026-04-22 16:10 | -35.25386 | -60.93420 | 9166 ft | 185 kts | 81° |
| 2026-04-22 16:10 | -35.25128 | -60.91876 | 9162 ft | 185 kts | 81° |
| 2026-04-22 16:10 | -35.24868 | -60.90338 | 9161 ft | 185 kts | 81° |
| 2026-04-22 16:11 | -35.24607 | -60.88797 | 9159 ft | 185 kts | 81° |
| 2026-04-22 16:11 | -35.24347 | -60.87260 | 9162 ft | 185 kts | 81° |
| 2026-04-22 16:11 | -35.24087 | -60.85722 | 9161 ft | 184 kts | 81° |
| 2026-04-22 16:11 | -35.23828 | -60.84183 | 9158 ft | 185 kts | 81° |
| 2026-04-22 16:12 | -35.23567 | -60.82647 | 9158 ft | 185 kts | 81° |
| 2026-04-22 16:12 | -35.23305 | -60.81105 | 9162 ft | 185 kts | 81° |
| 2026-04-22 16:12 | -35.23043 | -60.79560 | 9158 ft | 185 kts | 81° |
| 2026-04-22 16:12 | -35.22782 | -60.78020 | 9158 ft | 185 kts | 81° |
| 2026-04-22 16:13 | -35.22519 | -60.76474 | 9159 ft | 186 kts | 81° |
| 2026-04-22 16:13 | -35.22255 | -60.74927 | 9162 ft | 186 kts | 81° |
| 2026-04-22 16:13 | -35.21994 | -60.73382 | 9159 ft | 186 kts | 81° |
| 2026-04-22 16:13 | -35.21731 | -60.71838 | 9156 ft | 185 kts | 81° |
| 2026-04-22 16:14 | -35.21471 | -60.70311 | 9161 ft | 186 kts | 81° |
| 2026-04-22 16:14 | -35.21207 | -60.68762 | 9158 ft | 186 kts | 81° |
| 2026-04-22 16:14 | -35.20943 | -60.67213 | 9153 ft | 186 kts | 81° |
| 2026-04-22 16:14 | -35.20679 | -60.65672 | 9152 ft | 185 kts | 80° |
| 2026-04-22 16:15 | -35.20414 | -60.64129 | 9153 ft | 185 kts | 80° |
| 2026-04-22 16:15 | -35.20151 | -60.62594 | 9150 ft | 184 kts | 80° |
| 2026-04-22 16:15 | -35.19889 | -60.61058 | 9153 ft | 184 kts | 80° |
| 2026-04-22 16:15 | -35.19627 | -60.59528 | 9151 ft | 185 kts | 81° |
| 2026-04-22 16:16 | -35.19362 | -60.57984 | 9145 ft | 185 kts | 81° |
| 2026-04-22 16:16 | -35.19098 | -60.56445 | 9148 ft | 185 kts | 80° |
| 2026-04-22 16:16 | -35.18834 | -60.54905 | 9151 ft | 185 kts | 80° |
| 2026-04-22 16:16 | -35.18569 | -60.53369 | 9146 ft | 184 kts | 80° |
| 2026-04-22 16:17 | -35.18305 | -60.51835 | 9144 ft | 185 kts | 80° |
| 2026-04-22 16:17 | -35.18040 | -60.50297 | 9146 ft | 184 kts | 80° |
| 2026-04-22 16:17 | -35.17780 | -60.48785 | 9147 ft | 185 kts | 80° |
| 2026-04-22 16:17 | -35.17515 | -60.47248 | 9145 ft | 185 kts | 80° |
| 2026-04-22 16:18 | -35.17249 | -60.45714 | 9145 ft | 184 kts | 80° |
| 2026-04-22 16:18 | -35.16984 | -60.44175 | 9145 ft | 186 kts | 80° |
| 2026-04-22 16:18 | -35.16718 | -60.42634 | 9144 ft | 185 kts | 80° |
| 2026-04-22 16:18 | -35.16451 | -60.41095 | 9142 ft | 184 kts | 80° |
| 2026-04-22 16:19 | -35.16185 | -60.39566 | 9143 ft | 183 kts | 80° |
| 2026-04-22 16:19 | -35.15929 | -60.38036 | 9139 ft | 184 kts | 82° |
| 2026-04-22 16:19 | -35.15669 | -60.36510 | 9138 ft | 184 kts | 81° |
| 2026-04-22 16:19 | -35.15405 | -60.34987 | 9140 ft | 184 kts | 81° |
| 2026-04-22 16:20 | -35.15206 | -60.33844 | 9140 ft | 184 kts | 81° |
| 2026-04-22 16:20 | -35.14939 | -60.32315 | 9138 ft | 183 kts | 81° |
| 2026-04-22 16:20 | -35.14674 | -60.30789 | 9139 ft | 184 kts | 81° |
| 2026-04-22 16:20 | -35.14412 | -60.29284 | 9140 ft | 183 kts | 81° |
| 2026-04-22 16:21 | -35.14148 | -60.27765 | 9139 ft | 183 kts | 81° |
| 2026-04-22 16:21 | -35.13882 | -60.26240 | 9139 ft | 183 kts | 81° |
| 2026-04-22 16:21 | -35.13616 | -60.24718 | 9134 ft | 183 kts | 81° |
| 2026-04-22 16:21 | -35.13352 | -60.23201 | 9134 ft | 183 kts | 81° |
| 2026-04-22 16:22 | -35.12820 | -60.20158 | 9134 ft | 183 kts | 81° |
| 2026-04-22 16:22 | -35.12553 | -60.18630 | 9132 ft | 183 kts | 80° |
| 2026-04-22 16:22 | -35.12287 | -60.17109 | 9135 ft | 184 kts | 81° |
| 2026-04-22 16:23 | -35.11753 | -60.14066 | 9136 ft | 183 kts | 80° |
| 2026-04-22 16:23 | -35.11488 | -60.12549 | 9130 ft | 183 kts | 80° |
| 2026-04-22 16:23 | -35.11221 | -60.11034 | 9137 ft | 182 kts | 80° |
| 2026-04-22 16:24 | -35.10954 | -60.09513 | 9132 ft | 183 kts | 80° |
| 2026-04-22 16:24 | -35.10417 | -60.06468 | 9129 ft | 183 kts | 80° |
| 2026-04-22 16:24 | -35.10155 | -60.04966 | 9134 ft | 183 kts | 80° |
| 2026-04-22 16:25 | -35.09887 | -60.03449 | 9130 ft | 183 kts | 80° |
| 2026-04-22 16:25 | -35.09349 | -60.00406 | 9130 ft | 183 kts | 80° |
| 2026-04-22 16:25 | -35.09080 | -59.98884 | 9126 ft | 183 kts | 79° |
| 2026-04-22 16:26 | -35.08811 | -59.97361 | 9125 ft | 183 kts | 80° |
| 2026-04-22 16:26 | -35.08542 | -59.95846 | 9128 ft | 183 kts | 80° |
| 2026-04-22 16:26 | -35.08275 | -59.94335 | 9128 ft | 182 kts | 80° |
| 2026-04-22 16:26 | -35.08007 | -59.92827 | 9128 ft | 182 kts | 80° |
| 2026-04-22 16:27 | -35.07740 | -59.91317 | 9125 ft | 182 kts | 80° |
| 2026-04-22 16:27 | -35.07472 | -59.89804 | 9129 ft | 182 kts | 79° |
| 2026-04-22 16:27 | -35.07203 | -59.88289 | 9126 ft | 183 kts | 79° |
| 2026-04-22 16:27 | -35.06933 | -59.86776 | 9122 ft | 182 kts | 79° |
| 2026-04-22 16:28 | -35.06665 | -59.85269 | 9127 ft | 182 kts | 79° |
| 2026-04-22 16:28 | -35.06397 | -59.83763 | 9129 ft | 182 kts | 79° |
| 2026-04-22 16:28 | -35.06128 | -59.82247 | 9124 ft | 182 kts | 79° |
| 2026-04-22 16:28 | -35.05861 | -59.80755 | 9127 ft | 183 kts | 79° |
| 2026-04-22 16:29 | -35.05590 | -59.79237 | 9123 ft | 183 kts | 79° |
| 2026-04-22 16:29 | -35.05319 | -59.77724 | 9121 ft | 183 kts | 79° |
| 2026-04-22 16:29 | -35.05049 | -59.76211 | 9121 ft | 182 kts | 79° |
| 2026-04-22 16:29 | -35.04780 | -59.74703 | 9127 ft | 182 kts | 79° |
| 2026-04-22 16:30 | -35.04598 | -59.73689 | 9125 ft | 182 kts | 79° |
| 2026-04-22 16:30 | -35.04239 | -59.71682 | 9123 ft | 183 kts | 79° |
| 2026-04-22 16:30 | -35.03966 | -59.70161 | 9122 ft | 184 kts | 79° |
| 2026-04-22 16:30 | -35.03693 | -59.68638 | 9117 ft | 184 kts | 79° |
| 2026-04-22 16:31 | -35.03421 | -59.67120 | 9121 ft | 183 kts | 79° |
| 2026-04-22 16:31 | -35.03148 | -59.65606 | 9118 ft | 183 kts | 79° |
| 2026-04-22 16:31 | -35.02877 | -59.64098 | 9119 ft | 182 kts | 79° |
| 2026-04-22 16:31 | -35.02578 | -59.62596 | 9101 ft | 181 kts | 71° |
| 2026-04-22 16:32 | -35.02079 | -59.61493 | 9119 ft | 178 kts | 53° |
| 2026-04-22 16:32 | -35.01366 | -59.60268 | 9121 ft | 177 kts | 52° |
| 2026-04-22 16:32 | -35.00670 | -59.59027 | 9122 ft | 178 kts | 54° |
| 2026-04-22 16:32 | -34.99984 | -59.57768 | 9117 ft | 178 kts | 54° |
| 2026-04-22 16:33 | -34.99299 | -59.56506 | 9120 ft | 179 kts | 54° |
| 2026-04-22 16:33 | -34.98610 | -59.55240 | 9120 ft | 179 kts | 54° |
| 2026-04-22 16:33 | -34.97924 | -59.53981 | 9117 ft | 178 kts | 54° |
| 2026-04-22 16:33 | -34.97239 | -59.52724 | 9118 ft | 177 kts | 54° |
| 2026-04-22 16:34 | -34.96563 | -59.51486 | 9112 ft | 177 kts | 54° |
| 2026-04-22 16:34 | -34.95872 | -59.50219 | 9114 ft | 177 kts | 54° |
| 2026-04-22 16:34 | -34.95191 | -59.48972 | 9112 ft | 176 kts | 54° |
| 2026-04-22 16:34 | -34.94520 | -59.47744 | 9116 ft | 176 kts | 54° |
| 2026-04-22 16:35 | -34.93840 | -59.46499 | 9114 ft | 177 kts | 54° |
| 2026-04-22 16:35 | -34.93083 | -59.45384 | 9111 ft | 173 kts | 38° |
| 2026-04-22 16:35 | -34.92170 | -59.44429 | 9114 ft | 173 kts | 36° |
| 2026-04-22 16:35 | -34.91276 | -59.43446 | 9111 ft | 173 kts | 39° |
| 2026-04-22 16:36 | -34.90405 | -59.42442 | 9115 ft | 172 kts | 39° |
| 2026-04-22 16:36 | -34.89537 | -59.41436 | 9117 ft | 172 kts | 39° |
| 2026-04-22 16:36 | -34.88671 | -59.40436 | 9114 ft | 171 kts | 39° |
| 2026-04-22 16:36 | -34.87808 | -59.39440 | 9119 ft | 171 kts | 39° |
| 2026-04-22 16:37 | -34.86939 | -59.38440 | 9114 ft | 172 kts | 39° |
| 2026-04-22 16:37 | -34.86072 | -59.37439 | 9118 ft | 172 kts | 39° |
| 2026-04-22 16:37 | -34.85497 | -59.36776 | 9117 ft | 172 kts | 39° |
| 2026-04-22 16:37 | -34.84331 | -59.35432 | 9117 ft | 172 kts | 39° |
| 2026-04-22 16:38 | -34.83755 | -59.34768 | 9114 ft | 172 kts | 39° |
| 2026-04-22 16:38 | -34.82883 | -59.33764 | 9115 ft | 173 kts | 39° |
| 2026-04-22 16:38 | -34.82008 | -59.32757 | 9108 ft | 173 kts | 39° |
| 2026-04-22 16:38 | -34.81135 | -59.31751 | 9113 ft | 173 kts | 39° |
| 2026-04-22 16:39 | -34.80267 | -59.30752 | 9113 ft | 171 kts | 39° |
| 2026-04-22 16:39 | -34.79400 | -59.29755 | 9110 ft | 171 kts | 39° |
| 2026-04-22 16:39 | -34.78533 | -59.28759 | 9111 ft | 171 kts | 39° |
| 2026-04-22 16:39 | -34.77668 | -59.27764 | 9112 ft | 171 kts | 39° |
| 2026-04-22 16:40 | -34.76803 | -59.26771 | 9108 ft | 171 kts | 39° |
| 2026-04-22 16:40 | -34.75938 | -59.25775 | 9111 ft | 170 kts | 39° |
| 2026-04-22 16:40 | -34.74210 | -59.23792 | 9110 ft | 170 kts | 39° |
| 2026-04-22 16:41 | -34.73348 | -59.22802 | 9113 ft | 171 kts | 39° |
| 2026-04-22 16:41 | -34.72499 | -59.21828 | 9114 ft | 171 kts | 39° |
| 2026-04-22 16:41 | -34.71635 | -59.20837 | 9109 ft | 170 kts | 39° |
| 2026-04-22 16:41 | -34.70780 | -59.19856 | 9112 ft | 170 kts | 39° |
| 2026-04-22 16:42 | -34.69917 | -59.18866 | 9105 ft | 170 kts | 39° |
| 2026-04-22 16:42 | -34.69061 | -59.17885 | 9108 ft | 169 kts | 39° |
| 2026-04-22 16:42 | -34.68203 | -59.16903 | 9104 ft | 170 kts | 39° |
| 2026-04-22 16:42 | -34.67344 | -59.15919 | 9109 ft | 169 kts | 39° |
| 2026-04-22 16:43 | -34.66486 | -59.14937 | 9105 ft | 170 kts | 39° |
| 2026-04-22 16:43 | -34.65625 | -59.13953 | 9106 ft | 170 kts | 39° |
| 2026-04-22 16:43 | -34.64769 | -59.12970 | 9109 ft | 168 kts | 39° |
| 2026-04-22 16:43 | -34.63916 | -59.11994 | 9113 ft | 169 kts | 38° |
| 2026-04-22 16:44 | -34.63063 | -59.11020 | 9110 ft | 168 kts | 39° |
| 2026-04-22 16:44 | -34.62207 | -59.10041 | 9108 ft | 169 kts | 38° |
| 2026-04-22 16:44 | -34.61353 | -59.09065 | 9103 ft | 168 kts | 39° |
| 2026-04-22 16:44 | -34.60504 | -59.08093 | 9103 ft | 168 kts | 39° |
| 2026-04-22 16:45 | -34.59655 | -59.07124 | 9105 ft | 168 kts | 39° |
| 2026-04-22 16:45 | -34.58809 | -59.06159 | 9106 ft | 167 kts | 39° |
| 2026-04-22 16:45 | -34.57962 | -59.05193 | 9112 ft | 167 kts | 39° |
| 2026-04-22 16:45 | -34.57111 | -59.04220 | 9112 ft | 169 kts | 39° |
| 2026-04-22 16:46 | -34.56249 | -59.03237 | 9110 ft | 169 kts | 39° |
| 2026-04-22 16:46 | -34.55396 | -59.02264 | 9110 ft | 169 kts | 38° |
| 2026-04-22 16:46 | -34.54549 | -59.01297 | 9106 ft | 169 kts | 38° |
| 2026-04-22 16:46 | -34.53692 | -59.00320 | 9107 ft | 168 kts | 39° |
| 2026-04-22 16:47 | -34.52839 | -58.99348 | 9103 ft | 169 kts | 38° |
| 2026-04-22 16:47 | -34.51986 | -58.98374 | 9100 ft | 168 kts | 39° |
| 2026-04-22 16:47 | -34.51139 | -58.97410 | 9105 ft | 166 kts | 38° |
| 2026-04-22 16:47 | -34.50300 | -58.96455 | 9092 ft | 166 kts | 38° |
| 2026-04-22 16:48 | -34.49434 | -58.95472 | 8938 ft | 173 kts | 39° |
| 2026-04-22 16:48 | -34.48551 | -58.94466 | 8780 ft | 175 kts | 39° |
| 2026-04-22 16:48 | -34.47660 | -58.93449 | 8628 ft | 175 kts | 39° |
| 2026-04-22 16:48 | -34.46780 | -58.92446 | 8473 ft | 173 kts | 39° |
| 2026-04-22 16:49 | -34.45901 | -58.91448 | 8321 ft | 174 kts | 39° |
| 2026-04-22 16:49 | -34.45017 | -58.90443 | 8173 ft | 174 kts | 39° |
| 2026-04-22 16:49 | -34.44135 | -58.89440 | 8017 ft | 174 kts | 39° |
| 2026-04-22 16:49 | -34.43258 | -58.88444 | 7866 ft | 172 kts | 39° |
| 2026-04-22 16:50 | -34.42384 | -58.87450 | 7721 ft | 172 kts | 39° |
| 2026-04-22 16:50 | -34.41507 | -58.86456 | 7572 ft | 173 kts | 39° |
| 2026-04-22 16:50 | -34.40638 | -58.85470 | 7429 ft | 173 kts | 39° |
| 2026-04-22 16:50 | -34.39764 | -58.84479 | 7273 ft | 172 kts | 40° |
| 2026-04-22 16:51 | -34.38889 | -58.83487 | 7130 ft | 173 kts | 40° |
| 2026-04-22 16:51 | -34.38005 | -58.82485 | 6983 ft | 175 kts | 40° |
| 2026-04-22 16:51 | -34.37116 | -58.81477 | 6835 ft | 175 kts | 40° |
| 2026-04-22 16:51 | -34.36231 | -58.80476 | 6694 ft | 174 kts | 40° |
| 2026-04-22 16:52 | -34.35349 | -58.79476 | 6550 ft | 174 kts | 40° |
| 2026-04-22 16:52 | -34.34467 | -58.78477 | 6403 ft | 173 kts | 41° |
| 2026-04-22 16:52 | -34.33590 | -58.77480 | 6241 ft | 172 kts | 40° |
| 2026-04-22 16:52 | -34.32735 | -58.76485 | 6091 ft | 170 kts | 45° |
| 2026-04-22 16:53 | -34.32232 | -58.75199 | 5939 ft | 169 kts | 78° |
| 2026-04-22 16:53 | -34.32054 | -58.73815 | 5792 ft | 166 kts | 83° |
| 2026-04-22 16:53 | -34.31867 | -58.72439 | 5619 ft | 165 kts | 81° |
| 2026-04-22 16:53 | -34.31656 | -58.71104 | 5483 ft | 160 kts | 80° |
| 2026-04-22 16:54 | -34.31445 | -58.69787 | 5325 ft | 158 kts | 80° |
| 2026-04-22 16:54 | -34.31235 | -58.68481 | 5173 ft | 158 kts | 80° |
| 2026-04-22 16:54 | -34.31028 | -58.67181 | 5018 ft | 159 kts | 79° |
| 2026-04-22 16:54 | -34.30818 | -58.65876 | 4865 ft | 157 kts | 80° |
| 2026-04-22 16:55 | -34.30611 | -58.64569 | 4712 ft | 160 kts | 80° |
| 2026-04-22 16:55 | -34.30402 | -58.63260 | 4550 ft | 157 kts | 79° |
| 2026-04-22 16:55 | -34.30191 | -58.61959 | 4391 ft | 157 kts | 79° |
| 2026-04-22 16:55 | -34.29979 | -58.60646 | 4267 ft | 160 kts | 79° |
| 2026-04-22 16:56 | -34.29769 | -58.59335 | 4106 ft | 157 kts | 80° |
| 2026-04-22 16:56 | -34.29563 | -58.58045 | 3945 ft | 157 kts | 80° |
| 2026-04-22 16:56 | -34.29356 | -58.56763 | 3810 ft | 155 kts | 79° |
| 2026-04-22 16:56 | -34.29209 | -58.55847 | 3683 ft | 154 kts | 79° |
| 2026-04-22 16:57 | -34.29006 | -58.54588 | 3535 ft | 152 kts | 79° |
| 2026-04-22 16:57 | -34.28805 | -58.53334 | 3384 ft | 153 kts | 80° |
| 2026-04-22 16:57 | -34.28600 | -58.52062 | 3242 ft | 157 kts | 79° |
| 2026-04-22 16:57 | -34.28474 | -58.50755 | 3058 ft | 159 kts | 96° |
| 2026-04-22 16:58 | -34.28713 | -58.49936 | 3014 ft | 153 kts | 124° |
| 2026-04-22 16:58 | -34.29795 | -58.48974 | 2950 ft | 144 kts | 156° |
| 2026-04-22 16:58 | -34.30688 | -58.48372 | 2762 ft | 148 kts | 154° |